Pensacola NAS, FL

8:08 AM CST on December 22, 2014 (GMT -0600)
Pensacola Regional | Change Station
CLOSE
Current Station
Airport
Location: Pensacola,
Elevation: 118 ft
Nearby Weather Stations

Elev 118 ft 30.48 °N, 87.19 °W | Updated 15 minutes ago

Rain
Rain
53 °F
Feels Like 53 °F
N
8
Wind Variable Wind from ENE

Today
High -- | Low -- °F
--% Chance of Precip.
Yesterday
High -- | Low -- °F
Precip. -- in
6:42 AM 4:53 PM
New Moon, 0% visible
Pressure 29.91 in
Visibility 6.0 miles
Clouds Overcast 500 ft
Dew Point 53 °F
Humidity 100%
Rainfall 0.07 in
Snow Depth Not available.
UV 0 out of 12
Pollen 2.00 out of 12
Air Quality Not available.
Flu Activity Not available.
METAR KPNS 221353Z 06007KT 6SM RA BR OVC005 12/12 A2990 RMK AO2 LTG DSNT SE SLP128 P0004 T01170117 $

More Conditions Fewer Conditions

Pressure 29.91 in
Visibility 6.0 miles
Clouds Overcast 500 ft
Dew Point 53 °F
Humidity 100%
Rainfall 0.07 in
Snow Depth Not available.
UV 0 out of 12
Pollen 2.00 out of 12
Air Quality Not available.
Flu Activity Not available.
METAR KPNS 221353Z 06007KT 6SM RA BR OVC005 12/12 A2990 RMK AO2 LTG DSNT SE SLP128 P0004 T01170117 $

More Conditions Fewer Conditions

10-Day Weather Forecast

Almanac

Astronomy

Dec. 22, 2014 Rise Set
Actual Time
Civil Twilight
Nautical Twilight
Astronomical Twilight
Moon
Length of Visible Light
Length of Day
Tomorrow will be .
, % of the Moon is Illuminated

Today's Extremes

State Highs State Lows

Community

WunderPhotos

Upload Photos

1,779,602 photos uploaded!

WunderBlogs® & News

Nearby

Air Quality

  Air Quality AQ Index Pollutant
Not available.

Snow Depth

Station Depth Elevation

Earthquake Activity

City Distance Mag. Time & Date
Minimum magnitude displayed is 2.5.

Coastal Water Temperatures

Place Temperature

Nearby Weather Stations